createdAt,value
2023-01-27T00:00:31.511Z,2.17
2023-01-27T00:02:59.083Z,1.80
2023-01-27T00:05:28.103Z,2.63
2023-01-27T00:07:58.373Z,2.50
2023-01-27T00:10:26.105Z,1.90
2023-01-27T00:13:11.361Z,2.42
2023-01-27T00:15:39.007Z,2.55
2023-01-27T00:18:06.797Z,2.38
2023-01-27T00:20:53.156Z,1.77
2023-01-27T00:23:39.034Z,2.33
2023-01-27T00:26:07.532Z,1.90
2023-01-27T00:28:35.076Z,2.35
2023-01-27T00:31:03.123Z,1.83
2023-01-27T00:33:30.240Z,2.17
2023-01-27T00:36:00.232Z,2.58
2023-01-27T00:38:28.231Z,2.40
2023-01-27T00:41:13.415Z,2.45
2023-01-27T00:43:41.083Z,3.10
2023-01-27T00:46:08.768Z,3.13
2023-01-27T00:48:36.425Z,3.30
2023-01-27T00:51:05.624Z,2.80
2023-01-27T00:53:33.438Z,3.65
2023-01-27T00:56:01.012Z,3.53
2023-01-27T00:58:29.312Z,3.30
2023-01-27T01:00:57.464Z,2.90
2023-01-27T01:03:24.991Z,3.10
2023-01-27T01:05:52.568Z,2.97
2023-01-27T01:08:21.732Z,3.33
2023-01-27T01:10:49.512Z,3.67
2023-01-27T01:13:16.991Z,3.00
2023-01-27T01:15:44.834Z,3.58
2023-01-27T01:18:12.991Z,3.65
2023-01-27T01:20:42.881Z,3.13
2023-01-27T01:23:11.251Z,3.28
2023-01-27T01:25:40.112Z,3.60
2023-01-27T01:28:08.024Z,2.90
2023-01-27T01:30:37.879Z,2.95
2023-01-27T01:33:06.646Z,3.03
2023-01-27T01:35:38.570Z,3.20
2023-01-27T01:38:06.292Z,3.42
2023-01-27T01:40:34.166Z,3.05
2023-01-27T01:43:04.391Z,3.40
2023-01-27T01:45:44.103Z,2.85
2023-01-27T01:48:14.849Z,3.25
2023-01-27T01:50:43.769Z,3.40
2023-01-27T01:53:11.810Z,3.45
2023-01-27T01:55:40.629Z,2.92
2023-01-27T01:58:11.090Z,3.20
2023-01-27T02:00:38.626Z,3.33
2023-01-27T02:03:06.218Z,3.13
2023-01-27T02:05:35.252Z,3.10
2023-01-27T02:08:05.845Z,3.50
2023-01-27T02:10:33.836Z,3.00
2023-01-27T02:13:02.047Z,3.28
2023-01-27T02:15:31.513Z,4.28
2023-01-27T02:17:59.980Z,2.83
2023-01-27T02:20:32.111Z,3.10
2023-01-27T02:23:02.883Z,2.97
2023-01-27T02:25:33.365Z,2.88
2023-01-27T02:28:02.520Z,3.00
2023-01-27T02:30:30.161Z,2.92
2023-01-27T02:32:58.180Z,2.90
2023-01-27T02:35:28.522Z,2.60
2023-01-27T02:37:56.915Z,3.20
2023-01-27T02:40:25.522Z,2.65
2023-01-27T02:42:55.384Z,2.13
2023-01-27T02:45:24.558Z,2.63
2023-01-27T02:47:52.199Z,2.30
2023-01-27T02:50:20.507Z,2.25
2023-01-27T02:52:48.143Z,2.30
2023-01-27T02:55:16.703Z,2.25
2023-01-27T02:57:44.291Z,2.22
2023-01-27T03:00:40.173Z,2.17
2023-01-27T03:03:07.767Z,2.33
2023-01-27T03:05:35.451Z,2.60
2023-01-27T03:08:03.077Z,3.05
2023-01-27T03:10:30.675Z,2.92
2023-01-27T03:12:59.174Z,2.20
2023-01-27T03:15:44.460Z,2.60
2023-01-27T03:18:13.826Z,2.65
2023-01-27T03:20:41.617Z,2.90
2023-01-27T03:23:09.370Z,2.83
2023-01-27T03:25:37.852Z,2.90
2023-01-27T03:28:05.599Z,2.53
2023-01-27T03:30:41.481Z,2.53
2023-01-27T03:33:17.096Z,2.67
2023-01-27T03:36:12.166Z,2.60
2023-01-27T03:39:04.711Z,2.70
2023-01-27T03:41:49.684Z,2.53
2023-01-27T03:44:34.935Z,2.53
2023-01-27T03:47:02.522Z,2.58
2023-01-27T03:49:31.395Z,2.60
2023-01-27T03:51:58.923Z,2.20
2023-01-27T03:54:26.459Z,2.30
2023-01-27T03:56:54.183Z,2.60
2023-01-27T03:59:21.794Z,2.65
2023-01-27T04:01:49.562Z,2.75
2023-01-27T04:04:34.825Z,2.95
2023-01-27T04:07:03.665Z,2.20
2023-01-27T04:09:31.881Z,2.58
2023-01-27T04:11:59.961Z,2.50
2023-01-27T04:14:28.531Z,2.67
2023-01-27T04:16:57.695Z,2.40
2023-01-27T04:19:25.847Z,2.40
2023-01-27T04:21:53.771Z,2.10
2023-01-27T04:24:25.617Z,2.30
2023-01-27T04:26:55.597Z,2.33
2023-01-27T04:29:24.379Z,2.17
2023-01-27T04:31:52.262Z,2.10
2023-01-27T04:34:20.157Z,2.22
2023-01-27T04:36:48.274Z,2.40
2023-01-27T04:39:16.278Z,2.22
2023-01-27T04:41:46.714Z,1.88
2023-01-27T04:44:14.191Z,1.70
2023-01-27T04:46:41.675Z,1.42
2023-01-27T04:49:09.324Z,1.60
2023-01-27T04:51:37.011Z,1.60
2023-01-27T04:54:05.428Z,1.60
2023-01-27T04:56:34.076Z,1.80
2023-01-27T04:59:03.783Z,1.67
2023-01-27T05:01:31.372Z,1.85
2023-01-27T05:03:59.156Z,2.05
2023-01-27T05:06:27.356Z,1.80
2023-01-27T05:08:55.015Z,1.95
2023-01-27T05:11:22.571Z,1.70
2023-01-27T05:13:50.751Z,1.60
2023-01-27T05:16:20.551Z,1.40
2023-01-27T05:18:48.770Z,1.90
2023-01-27T05:21:17.140Z,1.92
2023-01-27T05:23:44.929Z,1.67
2023-01-27T05:26:14.076Z,2.00
2023-01-27T05:28:42.599Z,1.42
2023-01-27T05:31:11.325Z,2.20
2023-01-27T05:33:40.625Z,1.75
2023-01-27T05:36:09.023Z,1.55
2023-01-27T05:38:36.638Z,1.52
2023-01-27T05:41:05.855Z,1.80
2023-01-27T05:43:34.194Z,1.80
2023-01-27T05:46:02.361Z,1.80
2023-01-27T05:48:30.302Z,2.10
2023-01-27T05:50:59.848Z,2.60
2023-01-27T05:53:27.594Z,2.75
2023-01-27T05:55:55.489Z,2.83
2023-01-27T05:58:23.248Z,2.40
2023-01-27T06:00:51.314Z,2.75
2023-01-27T06:03:19.017Z,2.95
2023-01-27T06:05:53.596Z,3.03
2023-01-27T06:08:22.715Z,2.97
2023-01-27T06:10:50.486Z,2.38
2023-01-27T06:13:19.259Z,2.38
2023-01-27T06:15:47.369Z,3.05
2023-01-27T06:18:15.281Z,2.45
2023-01-27T06:20:43.180Z,2.83
2023-01-27T06:23:11.335Z,2.60
2023-01-27T06:25:40.892Z,2.72
2023-01-27T06:28:10.794Z,2.92
2023-01-27T06:30:41.035Z,3.20
2023-01-27T06:33:09.119Z,2.42
2023-01-27T06:35:37.283Z,2.40
2023-01-27T06:38:05.527Z,2.17
2023-01-27T06:40:33.776Z,2.28
2023-01-27T06:43:02.818Z,2.63
2023-01-27T06:45:30.369Z,2.60
2023-01-27T06:47:59.041Z,2.50
2023-01-27T06:50:26.861Z,2.63
2023-01-27T06:52:54.468Z,2.22
2023-01-27T06:55:24.179Z,2.33
2023-01-27T06:57:52.177Z,2.60
2023-01-27T07:00:21.608Z,2.40
2023-01-27T07:02:49.312Z,3.00
2023-01-27T07:05:17.283Z,3.78
2023-01-27T07:07:44.762Z,2.90
2023-01-27T07:10:12.797Z,3.20
2023-01-27T07:12:40.567Z,2.55
2023-01-27T07:15:08.944Z,2.60
2023-01-27T07:17:38.215Z,2.70
2023-01-27T07:20:07.008Z,2.50
2023-01-27T07:22:34.612Z,2.22
2023-01-27T07:25:02.241Z,2.15
2023-01-27T07:27:30.319Z,2.40
2023-01-27T07:29:57.961Z,2.22
2023-01-27T07:32:27.387Z,2.42
2023-01-27T07:34:57.441Z,2.17
2023-01-27T07:37:25.027Z,1.85
2023-01-27T07:39:52.512Z,2.20
2023-01-27T07:42:19.984Z,2.17
2023-01-27T07:44:50.266Z,2.50
2023-01-27T07:47:18.007Z,2.28
2023-01-27T07:49:45.616Z,2.40
2023-01-27T07:52:14.556Z,2.63
2023-01-27T07:54:42.467Z,2.63
2023-01-27T07:57:10.027Z,2.63
2023-01-27T07:59:37.581Z,2.50
2023-01-27T08:02:05.169Z,3.20
2023-01-27T08:04:43.457Z,2.97
2023-01-27T08:07:19.927Z,2.42
2023-01-27T08:09:47.556Z,2.90
2023-01-27T08:12:15.102Z,2.97
2023-01-27T08:14:42.611Z,2.58
2023-01-27T08:17:10.227Z,2.60
2023-01-27T08:19:37.743Z,2.50
2023-01-27T08:22:05.347Z,3.47
2023-01-27T08:24:34.254Z,2.63
2023-01-27T08:27:01.804Z,2.28
2023-01-27T08:29:31.576Z,2.92
2023-01-27T08:31:59.893Z,2.80
2023-01-27T08:34:27.463Z,2.75
2023-01-27T08:36:55.108Z,2.80
2023-01-27T08:39:22.602Z,2.73
2023-01-27T08:42:15.320Z,2.57
2023-01-27T08:44:44.249Z,2.80
2023-01-27T08:47:11.777Z,2.20
2023-01-27T08:49:39.333Z,2.37
2023-01-27T08:52:06.836Z,2.13
2023-01-27T08:54:34.466Z,2.20
2023-01-27T08:57:02.013Z,1.83
2023-01-27T08:59:29.633Z,2.17
2023-01-27T09:01:58.577Z,1.83
2023-01-27T09:04:26.139Z,2.37
2023-01-27T09:06:54.196Z,2.00
2023-01-27T09:09:21.933Z,2.97
2023-01-27T09:11:49.473Z,2.50
2023-01-27T09:14:16.950Z,2.13
2023-01-27T09:16:44.500Z,2.20
2023-01-27T09:19:13.485Z,2.53
2023-01-27T09:21:40.946Z,2.05
2023-01-27T09:24:08.573Z,2.13
2023-01-27T09:26:36.126Z,2.30
2023-01-27T09:29:03.657Z,2.10
2023-01-27T09:31:31.154Z,1.90
2023-01-27T09:33:58.820Z,2.53
2023-01-27T09:36:28.349Z,2.38
2023-01-27T09:38:58.069Z,2.50
2023-01-27T09:41:35.347Z,2.67
2023-01-27T09:44:12.492Z,3.17
2023-01-27T09:46:46.506Z,2.53
2023-01-27T09:49:35.199Z,3.40
2023-01-27T09:52:45.507Z,3.17
2023-01-27T09:55:19.289Z,3.55
2023-01-27T09:57:51.637Z,3.38
2023-01-27T10:00:24.474Z,3.08
2023-01-27T10:03:09.095Z,3.28
2023-01-27T10:05:42.664Z,3.17
2023-01-27T10:08:22.940Z,2.97
2023-01-27T10:10:59.163Z,3.17
2023-01-27T10:13:31.467Z,3.30
2023-01-27T10:16:05.753Z,3.67
2023-01-27T10:18:43.924Z,3.22
2023-01-27T10:21:15.573Z,2.72
2023-01-27T10:23:58.146Z,2.17
2023-01-27T10:26:31.642Z,2.80
2023-01-27T10:29:04.781Z,2.63
2023-01-27T10:31:35.962Z,2.90
2023-01-27T10:34:07.879Z,2.73
2023-01-27T10:36:38.920Z,2.80
2023-01-27T10:39:15.311Z,2.50
2023-01-27T10:41:49.128Z,2.00
2023-01-27T10:44:22.979Z,1.90
2023-01-27T10:46:54.395Z,2.00
2023-01-27T10:49:24.429Z,2.07
2023-01-27T10:51:55.372Z,1.77
2023-01-27T10:54:27.827Z,2.13
2023-01-27T10:56:57.648Z,2.10
2023-01-27T10:59:30.720Z,2.20
2023-01-27T11:02:02.454Z,1.90
2023-01-27T11:04:34.042Z,1.80
2023-01-27T11:07:01.779Z,1.90
2023-01-27T11:09:32.411Z,1.90
2023-01-27T11:12:02.624Z,1.98
2023-01-27T11:14:31.127Z,2.00
2023-01-27T11:17:02.577Z,1.95
2023-01-27T11:19:33.853Z,1.90
2023-01-27T11:22:08.293Z,1.83
2023-01-27T11:24:43.422Z,1.63
2023-01-27T11:27:14.737Z,2.03
2023-01-27T11:29:44.908Z,1.75
2023-01-27T11:32:17.481Z,1.75
2023-01-27T11:34:47.308Z,2.63
2023-01-27T11:37:20.176Z,2.17
2023-01-27T11:39:49.523Z,2.00
2023-01-27T11:42:17.641Z,1.92
2023-01-27T11:44:45.956Z,2.10
2023-01-27T11:47:18.697Z,1.92
2023-01-27T11:49:48.930Z,1.65
2023-01-27T11:52:17.866Z,1.95
2023-01-27T11:54:47.696Z,1.90
2023-01-27T11:57:19.769Z,2.05
2023-01-27T11:59:48.077Z,1.60
2023-01-27T12:02:21.787Z,2.33
2023-01-27T12:04:51.762Z,1.77
2023-01-27T12:07:22.031Z,1.73
2023-01-27T12:09:49.974Z,2.10
2023-01-27T12:12:26.433Z,1.70
2023-01-27T12:14:54.984Z,1.90
2023-01-27T12:17:28.846Z,1.67
2023-01-27T12:19:57.677Z,1.70
2023-01-27T12:22:27.294Z,1.52
2023-01-27T12:24:56.763Z,2.45
2023-01-27T12:27:28.226Z,1.60
2023-01-27T12:29:57.026Z,2.00
2023-01-27T12:32:30.243Z,1.40
2023-01-27T12:34:58.767Z,1.50
2023-01-27T12:37:28.646Z,1.30
2023-01-27T12:40:00.285Z,1.60
2023-01-27T12:42:36.919Z,2.60
2023-01-27T12:45:25.487Z,2.60
2023-01-27T12:48:00.857Z,1.85
2023-01-27T12:50:30.475Z,1.55
2023-01-27T12:53:10.846Z,1.40
2023-01-27T12:55:40.659Z,1.88
2023-01-27T12:58:27.468Z,1.80
2023-01-27T13:00:55.245Z,1.50
2023-01-27T13:03:23.385Z,1.75
2023-01-27T13:05:53.843Z,1.70
2023-01-27T13:08:22.628Z,1.80
2023-01-27T13:10:51.152Z,1.67
2023-01-27T13:13:19.712Z,1.70
2023-01-27T13:15:54.755Z,1.60
2023-01-27T13:18:22.786Z,1.90
2023-01-27T13:20:52.385Z,2.00
2023-01-27T13:23:21.815Z,1.92
2023-01-27T13:25:53.753Z,2.28
2023-01-27T13:28:24.182Z,1.80
2023-01-27T13:30:55.291Z,2.20
2023-01-27T13:33:27.742Z,2.10
2023-01-27T13:35:59.786Z,2.00
2023-01-27T13:38:32.203Z,1.60
2023-01-27T13:41:00.356Z,2.70
2023-01-27T13:43:33.551Z,2.65
2023-01-27T13:46:05.844Z,2.58
2023-01-27T13:48:34.802Z,2.17
2023-01-27T13:51:04.516Z,3.15
2023-01-27T13:53:32.131Z,1.65
2023-01-27T13:56:06.738Z,2.35
2023-01-27T13:58:44.624Z,2.40
2023-01-27T14:01:18.710Z,2.58
2023-01-27T14:04:01.183Z,2.50
2023-01-27T14:06:34.008Z,2.67
2023-01-27T14:09:07.878Z,2.50
2023-01-27T14:11:37.992Z,2.88
2023-01-27T14:14:15.191Z,2.25
2023-01-27T14:16:46.377Z,2.70
2023-01-27T14:19:31.499Z,2.50
2023-01-27T14:22:02.905Z,2.17
2023-01-27T14:24:35.905Z,2.20
2023-01-27T14:27:06.216Z,2.30
2023-01-27T14:29:38.848Z,2.47
2023-01-27T14:32:13.409Z,2.20
2023-01-27T14:34:51.694Z,2.20
2023-01-27T14:37:22.624Z,2.10
2023-01-27T14:39:55.486Z,1.77
2023-01-27T14:42:30.548Z,1.85
2023-01-27T14:45:03.947Z,1.80
2023-01-27T14:47:38.743Z,1.77
2023-01-27T14:50:14.764Z,1.90
2023-01-27T14:52:45.461Z,2.30
2023-01-27T14:55:23.139Z,2.00
2023-01-27T14:57:56.614Z,1.83
2023-01-27T15:00:30.816Z,2.28
2023-01-27T15:03:04.729Z,2.60
2023-01-27T15:05:35.462Z,2.20
2023-01-27T15:08:09.532Z,2.53
2023-01-27T15:10:39.128Z,1.85
2023-01-27T15:13:13.857Z,2.08
2023-01-27T15:15:49.599Z,1.50
2023-01-27T15:18:24.719Z,2.40
2023-01-27T15:21:03.781Z,2.42
2023-01-27T15:23:48.249Z,2.70
2023-01-27T15:26:17.693Z,2.40
2023-01-27T15:28:45.506Z,2.10
2023-01-27T15:31:24.106Z,1.95
2023-01-27T15:33:55.086Z,2.00
2023-01-27T15:36:33.397Z,2.13
2023-01-27T15:39:21.938Z,2.20
2023-01-27T15:41:54.975Z,2.33
2023-01-27T15:44:28.582Z,2.80
2023-01-27T15:46:57.274Z,2.47
2023-01-27T15:49:27.947Z,2.50
2023-01-27T15:51:57.674Z,2.47
2023-01-27T15:54:26.953Z,2.37
2023-01-27T15:56:55.196Z,3.17
2023-01-27T15:59:24.658Z,3.53
2023-01-27T16:02:01.540Z,4.23
2023-01-27T16:04:33.129Z,5.77
2023-01-27T16:07:02.889Z,2.60
2023-01-27T16:09:34.303Z,2.80
2023-01-27T16:12:03.467Z,2.40
2023-01-27T16:14:38.901Z,2.30
2023-01-27T16:17:26.504Z,2.63
2023-01-27T16:20:13.514Z,2.40
2023-01-27T16:22:41.305Z,2.57
2023-01-27T16:25:13.974Z,2.80
2023-01-27T16:27:44.792Z,3.10
2023-01-27T16:30:19.239Z,2.60
2023-01-27T16:32:55.138Z,2.77
2023-01-27T16:35:24.345Z,3.40
2023-01-27T16:38:00.760Z,4.07
2023-01-27T16:40:28.786Z,3.70
2023-01-27T16:42:58.025Z,4.20
2023-01-27T16:45:26.903Z,4.60
2023-01-27T16:47:55.948Z,3.10
2023-01-27T16:50:35.167Z,4.90
2023-01-27T16:53:03.180Z,6.53
2023-01-27T16:55:30.761Z,2.77
2023-01-27T16:57:58.714Z,2.37
2023-01-27T17:00:28.198Z,3.20
2023-01-27T17:02:57.150Z,3.13
2023-01-27T17:05:24.747Z,2.80
2023-01-27T17:08:17.008Z,2.90
2023-01-27T17:10:46.133Z,3.50
2023-01-27T17:13:26.508Z,3.27
2023-01-27T17:15:54.416Z,3.20
2023-01-27T17:18:23.132Z,2.83
2023-01-27T17:20:50.767Z,3.10
2023-01-27T17:23:24.141Z,3.20
2023-01-27T17:25:51.963Z,2.93
2023-01-27T17:28:22.455Z,8.90
2023-01-27T17:30:50.655Z,3.90
2023-01-27T17:33:19.599Z,4.37
2023-01-27T17:35:50.530Z,3.77
2023-01-27T17:38:20.858Z,4.37
2023-01-27T17:40:50.770Z,5.00
2023-01-27T17:43:27.465Z,5.40
2023-01-27T17:46:09.653Z,3.07
2023-01-27T17:48:40.529Z,3.37
2023-01-27T17:51:08.475Z,3.47
2023-01-27T17:53:36.588Z,3.17
2023-01-27T17:56:13.341Z,3.83
2023-01-27T17:58:43.832Z,3.40
2023-01-27T18:01:11.825Z,3.90
2023-01-27T18:03:39.839Z,3.10
2023-01-27T18:06:09.802Z,3.13
2023-01-27T18:08:37.666Z,3.40
2023-01-27T18:11:21.313Z,3.20
2023-01-27T18:13:52.265Z,3.20
2023-01-27T18:16:20.585Z,3.60
2023-01-27T18:18:49.708Z,3.65
2023-01-27T18:21:18.777Z,4.03
2023-01-27T18:23:47.850Z,4.83
2023-01-27T18:26:18.651Z,3.17
2023-01-27T18:28:47.040Z,3.10
2023-01-27T18:31:16.332Z,2.80
2023-01-27T18:33:46.282Z,3.57
2023-01-27T18:36:20.803Z,3.87
2023-01-27T18:38:49.924Z,3.40
2023-01-27T18:41:26.460Z,3.27
2023-01-27T18:43:54.112Z,3.03
2023-01-27T18:46:21.667Z,3.13
2023-01-27T18:48:49.518Z,3.03
2023-01-27T18:51:18.221Z,2.33
2023-01-27T18:53:45.898Z,2.90
2023-01-27T18:56:13.740Z,3.03
2023-01-27T18:58:42.561Z,2.60
2023-01-27T19:01:15.284Z,2.87
2023-01-27T19:03:42.827Z,2.47
2023-01-27T19:06:12.858Z,2.53
2023-01-27T19:08:40.450Z,2.13
2023-01-27T19:11:07.957Z,2.63
2023-01-27T19:13:35.673Z,2.63
2023-01-27T19:16:06.225Z,2.80
2023-01-27T19:18:35.221Z,2.73
2023-01-27T19:21:02.983Z,2.53
2023-01-27T19:23:32.048Z,2.97
2023-01-27T19:26:00.406Z,2.63
2023-01-27T19:28:30.056Z,2.00
2023-01-27T19:30:58.009Z,2.45
2023-01-27T19:33:27.775Z,3.03
2023-01-27T19:35:56.115Z,3.27
2023-01-27T19:38:24.190Z,3.63
2023-01-27T19:40:51.732Z,3.40
2023-01-27T19:43:19.285Z,3.47
2023-01-27T19:45:47.722Z,3.50
2023-01-27T19:48:16.134Z,3.70
2023-01-27T19:50:45.133Z,4.40
2023-01-27T19:53:13.398Z,4.27
2023-01-27T19:55:41.146Z,4.60
2023-01-27T19:58:15.064Z,3.97
2023-01-27T20:00:42.611Z,4.27
2023-01-27T20:03:10.276Z,4.30
2023-01-27T20:05:37.822Z,5.33
2023-01-27T20:08:06.794Z,5.57
2023-01-27T20:10:34.503Z,5.33
2023-01-27T20:13:03.078Z,4.93
2023-01-27T20:15:31.763Z,5.00
2023-01-27T20:17:59.548Z,4.67
2023-01-27T20:20:27.812Z,4.00
2023-01-27T20:22:55.886Z,4.20
2023-01-27T20:25:25.733Z,3.73
2023-01-27T20:27:54.395Z,3.23
2023-01-27T20:30:23.078Z,3.07
2023-01-27T20:32:50.672Z,3.03
2023-01-27T20:35:19.178Z,3.60
2023-01-27T20:37:47.826Z,3.93
2023-01-27T20:40:17.165Z,4.10
2023-01-27T20:42:46.012Z,3.57
2023-01-27T20:45:14.525Z,2.93
2023-01-27T20:47:42.412Z,2.60
2023-01-27T20:50:10.505Z,2.60
2023-01-27T20:52:38.645Z,3.00
2023-01-27T20:55:06.633Z,3.20
2023-01-27T20:57:34.618Z,3.30
2023-01-27T21:00:03.558Z,4.30
2023-01-27T21:02:32.699Z,2.70
2023-01-27T21:05:00.239Z,3.03
2023-01-27T21:07:28.004Z,2.70
2023-01-27T21:09:55.523Z,2.57
2023-01-27T21:12:23.353Z,2.43
2023-01-27T21:14:50.889Z,2.40
2023-01-27T21:17:19.854Z,2.20
2023-01-27T21:19:47.463Z,2.30
2023-01-27T21:22:15.188Z,3.27
2023-01-27T21:24:42.997Z,2.77
2023-01-27T21:27:10.491Z,3.13
2023-01-27T21:29:38.000Z,3.07
2023-01-27T21:32:05.829Z,3.03
2023-01-27T21:34:34.726Z,2.60
2023-01-27T21:37:02.231Z,2.50
2023-01-27T21:39:29.851Z,2.90
2023-01-27T21:42:14.045Z,3.77
2023-01-27T21:44:59.114Z,3.30
2023-01-27T21:47:26.662Z,3.30
2023-01-27T21:50:01.828Z,3.30
2023-01-27T21:52:31.830Z,2.70
2023-01-27T21:54:59.403Z,3.00
2023-01-27T21:57:26.983Z,3.17
2023-01-27T21:59:54.727Z,3.77
2023-01-27T22:02:22.438Z,3.40
2023-01-27T22:04:50.085Z,2.97
2023-01-27T22:07:19.599Z,3.30
2023-01-27T22:09:47.935Z,3.60
2023-01-27T22:12:16.238Z,3.17
2023-01-27T22:14:44.247Z,3.37
2023-01-27T22:17:11.885Z,3.77
2023-01-27T22:19:39.832Z,4.20
2023-01-27T22:22:07.642Z,3.50
2023-01-27T22:24:36.890Z,3.20
2023-01-27T22:27:04.551Z,3.27
2023-01-27T22:29:32.199Z,3.43
2023-01-27T22:31:59.679Z,3.57
2023-01-27T22:34:27.245Z,4.20
2023-01-27T22:36:54.832Z,4.47
2023-01-27T22:39:23.446Z,3.77
2023-01-27T22:41:52.533Z,3.83
2023-01-27T22:44:20.856Z,3.97
2023-01-27T22:46:49.150Z,4.00
2023-01-27T22:49:17.118Z,4.63
2023-01-27T22:51:46.675Z,5.00
2023-01-27T22:54:16.007Z,5.33
2023-01-27T22:56:43.779Z,5.47
2023-01-27T22:59:13.359Z,3.83
2023-01-27T23:01:41.856Z,4.30
2023-01-27T23:04:11.461Z,4.27
2023-01-27T23:06:39.265Z,4.07
2023-01-27T23:09:06.847Z,4.70
2023-01-27T23:11:34.537Z,4.25
2023-01-27T23:14:02.186Z,4.40
2023-01-27T23:16:31.277Z,4.10
2023-01-27T23:18:58.800Z,4.30
2023-01-27T23:21:26.445Z,4.60
2023-01-27T23:23:54.681Z,4.20
2023-01-27T23:26:22.185Z,4.47
2023-01-27T23:28:49.715Z,4.17
2023-01-27T23:31:17.358Z,5.27
2023-01-27T23:33:47.923Z,4.70
2023-01-27T23:36:15.502Z,4.33
2023-01-27T23:38:43.059Z,5.07
2023-01-27T23:41:17.883Z,5.27
2023-01-27T23:43:45.533Z,4.90
2023-01-27T23:46:13.323Z,4.73
2023-01-27T23:48:41.061Z,4.97
2023-01-27T23:51:10.745Z,4.43
2023-01-27T23:53:38.554Z,5.07
2023-01-27T23:56:06.718Z,4.87
2023-01-27T23:58:34.200Z,4.67
